Wright, Arkansas
Current Conditions -  °F | °C
As of 1:53 PM on Wednesday 28 Jan 2015 (Local Time) from KPBF Reporting Station
Clear Clear  
Wind Chill: 63°   Ceiling: Unl
Heat Index: 63°   Visibility: 10mi
Dew Point: 40°   Wind: 14mph
Humidity: 43%   Direction: 120°ESE
Pressure: 30.14"   Gusts: NA
Location:  34.43°N, 92.07°W
Report Text: KPBF 281953Z AUTO 12012KT 10SM CLR 17/04 A3014 RMK AO2 SLP205 T01720044
Loading
Personal Weather Stations






























Interactive Weather Map New forecast layout! Learn more

10-Day Weather Forecast

Advertisements
Track Severe Weather on mobile